Time;durP1;ratioP1;P1;durP2;ratioP2;P2;SDS_P1;SDS_P2;PMS_P1;PMS_P2;Temp;Humidity;BMP_temperature;BMP_pressure;BME280_temperature;BME280_humidity;BME280_pressure;Samples;Min_cycle;Max_cycle;Signal;HPM_P1;HPM_P2
2023/05/18 00:00:22;;;;;;;3.8;2.9;;;;;;;;;;;;;
2023/05/18 00:02:48;;;;;;;4.2;2.7;;;;;;;;;;;;;
2023/05/18 00:05:16;;;;;;;3.1;2.7;;;;;;;;;;;;;
2023/05/18 00:07:43;;;;;;;3.3;2.6;;;;;;;;;;;;;
2023/05/18 00:10:09;;;;;;;2.9;2.5;;;;;;;;;;;;;
2023/05/18 00:12:35;;;;;;;5.2;3;;;;;;;;;;;;;
2023/05/18 00:15:00;;;;;;;3;2.5;;;;;;;;;;;;;
2023/05/18 00:17:30;;;;;;;2.9;2.6;;;;;;;;;;;;;
2023/05/18 00:19:57;;;;;;;3.6;2.6;;;;;;;;;;;;;
2023/05/18 00:22:19;;;;;;;2.7;2.5;;;;;;;;;;;;;
2023/05/18 00:24:45;;;;;;;3.9;2.7;;;;;;;;;;;;;
2023/05/18 00:27:10;;;;;;;2.6;2.4;;;;;;;;;;;;;
2023/05/18 00:29:35;;;;;;;2.9;2.6;;;;;;;;;;;;;
2023/05/18 00:32:00;;;;;;;4;2.7;;;;;;;;;;;;;
2023/05/18 00:34:27;;;;;;;4.4;2.9;;;;;;;;;;;;;
2023/05/18 00:36:52;;;;;;;5.4;3.1;;;;;;;;;;;;;
2023/05/18 00:39:17;;;;;;;4.1;3.1;;;;;;;;;;;;;
2023/05/18 00:41:42;;;;;;;4.4;3.2;;;;;;;;;;;;;
2023/05/18 00:44:11;;;;;;;4.3;2.7;;;;;;;;;;;;;
2023/05/18 00:46:36;;;;;;;3.9;2.8;;;;;;;;;;;;;
2023/05/18 00:49:02;;;;;;;4.4;2.6;;;;;;;;;;;;;
2023/05/18 00:51:27;;;;;;;3.1;2.8;;;;;;;;;;;;;
2023/05/18 00:53:53;;;;;;;3.2;2.6;;;;;;;;;;;;;
2023/05/18 00:56:18;;;;;;;2.7;2.5;;;;;;;;;;;;;
2023/05/18 00:58:43;;;;;;;2.8;2.6;;;;;;;;;;;;;
2023/05/18 01:01:08;;;;;;;3.8;3.2;;;;;;;;;;;;;
2023/05/18 01:03:33;;;;;;;3.7;2.7;;;;;;;;;;;;;
2023/05/18 01:05:58;;;;;;;3.3;2.8;;;;;;;;;;;;;
2023/05/18 01:08:23;;;;;;;3.2;2.8;;;;;;;;;;;;;
2023/05/18 01:10:51;;;;;;;5.9;3.1;;;;;;;;;;;;;
2023/05/18 01:13:16;;;;;;;5.6;3.5;;;;;;;;;;;;;
2023/05/18 01:15:43;;;;;;;4.8;2.8;;;;;;;;;;;;;
2023/05/18 01:18:09;;;;;;;3.4;3;;;;;;;;;;;;;
2023/05/18 01:20:36;;;;;;;3.3;2.9;;;;;;;;;;;;;
2023/05/18 01:23:00;;;;;;;3.4;3;;;;;;;;;;;;;
2023/05/18 01:25:24;;;;;;;3.1;2.6;;;;;;;;;;;;;
2023/05/18 01:27:49;;;;;;;4.3;2.7;;;;;;;;;;;;;
2023/05/18 01:30:14;;;;;;;3.3;2.9;;;;;;;;;;;;;
2023/05/18 01:32:42;;;;;;;4.3;3;;;;;;;;;;;;;
2023/05/18 01:35:06;;;;;;;4.3;2.9;;;;;;;;;;;;;
2023/05/18 01:37:33;;;;;;;3.2;2.8;;;;;;;;;;;;;
2023/05/18 01:39:58;;;;;;;3.8;2.7;;;;;;;;;;;;;
2023/05/18 01:42:23;;;;;;;2.6;2.3;;;;;;;;;;;;;
2023/05/18 01:44:48;;;;;;;4.6;2.7;;;;;;;;;;;;;
2023/05/18 01:47:13;;;;;;;3.8;2.9;;;;;;;;;;;;;
2023/05/18 01:49:38;;;;;;;6.1;3.2;;;;;;;;;;;;;
2023/05/18 01:52:03;;;;;;;2.8;2.6;;;;;;;;;;;;;
2023/05/18 01:54:29;;;;;;;2.9;2.5;;;;;;;;;;;;;
2023/05/18 01:56:56;;;;;;;3.1;2.5;;;;;;;;;;;;;
2023/05/18 01:59:21;;;;;;;3.5;2.8;;;;;;;;;;;;;
2023/05/18 02:01:45;;;;;;;4.5;3.2;;;;;;;;;;;;;
2023/05/18 02:04:10;;;;;;;3.3;3;;;;;;;;;;;;;
2023/05/18 02:06:36;;;;;;;3.4;3;;;;;;;;;;;;;
2023/05/18 02:09:01;;;;;;;3.4;3;;;;;;;;;;;;;
2023/05/18 02:11:26;;;;;;;3.5;3;;;;;;;;;;;;;
2023/05/18 02:13:51;;;;;;;4.5;3.4;;;;;;;;;;;;;
2023/05/18 02:16:18;;;;;;;3.9;3.2;;;;;;;;;;;;;
2023/05/18 02:18:43;;;;;;;4.8;3.3;;;;;;;;;;;;;
2023/05/18 02:21:21;;;;;;;4.1;3.2;;;;;;;;;;;;;
2023/05/18 02:23:47;;;;;;;3.5;3;;;;;;;;;;;;;
2023/05/18 02:26:12;;;;;;;3.3;2.9;;;;;;;;;;;;;
2023/05/18 02:28:39;;;;;;;3.6;2.8;;;;;;;;;;;;;
2023/05/18 02:31:02;;;;;;;4.1;3.2;;;;;;;;;;;;;
2023/05/18 02:33:35;;;;;;;4;2.7;;;;;;;;;;;;;
2023/05/18 02:35:56;;;;;;;3;2.7;;;;;;;;;;;;;
2023/05/18 02:38:22;;;;;;;6.5;4.3;;;;;;;;;;;;;
2023/05/18 02:40:46;;;;;;;5.3;3.6;;;;;;;;;;;;;
2023/05/18 02:43:13;;;;;;;3.6;2.9;;;;;;;;;;;;;
2023/05/18 02:45:38;;;;;;;3.4;2.7;;;;;;;;;;;;;
2023/05/18 02:48:04;;;;;;;5.3;3;;;;;;;;;;;;;
2023/05/18 02:50:29;;;;;;;4;3.1;;;;;;;;;;;;;
2023/05/18 02:52:55;;;;;;;3.9;2.8;;;;;;;;;;;;;
2023/05/18 02:55:20;;;;;;;3.8;2.8;;;;;;;;;;;;;
2023/05/18 02:57:47;;;;;;;5.2;3.3;;;;;;;;;;;;;
2023/05/18 03:00:13;;;;;;;5.4;3.3;;;;;;;;;;;;;
2023/05/18 03:02:40;;;;;;;3.4;3.1;;;;;;;;;;;;;
2023/05/18 03:05:05;;;;;;;5.1;3.7;;;;;;;;;;;;;
2023/05/18 03:07:32;;;;;;;5.3;3.5;;;;;;;;;;;;;
2023/05/18 03:09:57;;;;;;;3.6;3;;;;;;;;;;;;;
2023/05/18 03:12:24;;;;;;;4;3.2;;;;;;;;;;;;;
2023/05/18 03:14:49;;;;;;;3.3;2.9;;;;;;;;;;;;;
2023/05/18 03:17:14;;;;;;;3.6;2.8;;;;;;;;;;;;;
2023/05/18 03:19:39;;;;;;;2.5;2.3;;;;;;;;;;;;;
2023/05/18 03:22:06;;;;;;;2.8;2.5;;;;;;;;;;;;;
2023/05/18 03:24:39;;;;;;;2.9;2.6;;;;;;;;;;;;;
2023/05/18 03:26:59;;;;;;;2.9;2.6;;;;;;;;;;;;;
2023/05/18 03:29:24;;;;;;;2.9;2.5;;;;;;;;;;;;;
2023/05/18 03:31:49;;;;;;;4.1;2.6;;;;;;;;;;;;;
2023/05/18 03:34:15;;;;;;;3.3;2.6;;;;;;;;;;;;;
2023/05/18 03:36:41;;;;;;;3.9;2.9;;;;;;;;;;;;;
2023/05/18 03:39:08;;;;;;;3.8;2.8;;;;;;;;;;;;;
2023/05/18 03:41:33;;;;;;;2.9;2.7;;;;;;;;;;;;;
2023/05/18 03:43:58;;;;;;;2.8;2.5;;;;;;;;;;;;;
2023/05/18 03:46:23;;;;;;;3.1;2.8;;;;;;;;;;;;;
2023/05/18 03:48:49;;;;;;;3.4;2.9;;;;;;;;;;;;;
2023/05/18 03:51:14;;;;;;;3.9;2.8;;;;;;;;;;;;;
2023/05/18 03:53:41;;;;;;;4.1;3.2;;;;;;;;;;;;;
2023/05/18 03:56:06;;;;;;;3;2.6;;;;;;;;;;;;;
2023/05/18 03:58:31;;;;;;;2.6;2.4;;;;;;;;;;;;;
2023/05/18 04:02:35;;;;;;;5;3;;;;;;;6.58;96.14063;940.9501;;;;
2023/05/18 04:04:59;;;;;;;4.4;3;;;;;;;6.59;96.11816;940.9409;;;;
2023/05/18 04:07:25;;;;;;;4.3;3.3;;;;;;;6.68;95.69727;940.9288;;;;
2023/05/18 04:09:50;;;;;;;6;3.9;;;;;;;6.68;95.64258;940.8917;;;;
2023/05/18 04:12:24;;;;;;;6.1;3.9;;;;;;;6.69;95.7334;940.8792;;;;
2023/05/18 04:14:54;;;;;;;4.3;3.3;;;;;;;6.72;95.26367;940.8856;;;;
2023/05/18 04:17:21;;;;;;;4;3.2;;;;;;;6.75;94.98926;940.8541;;;;
2023/05/18 04:19:44;;;;;;;4.9;3.2;;;;;;;6.75;94.72656;940.8198;;;;
2023/05/18 04:22:15;;;;;;;4.4;3.3;;;;;;;6.77;94.8916;940.8127;;;;
2023/05/18 04:24:44;;;;;;;4.2;3.1;;;;;;;6.75;95.10254;940.8699;;;;
2023/05/18 04:27:10;;;;;;;4.2;3;;;;;;;6.75;95.35156;940.8611;;;;
2023/05/18 04:29:37;;;;;;;3.6;2.9;;;;;;;6.78;94.73535;940.85;;;;
2023/05/18 04:32:00;;;;;;;3.7;2.9;;;;;;;6.78;94.64453;940.8373;;;;
2023/05/18 04:34:28;;;;;;;4.1;3.1;;;;;;;6.77;94.53809;940.7997;;;;
2023/05/18 04:36:54;;;;;;;5.3;3.6;;;;;;;6.8;94.52344;940.8695;;;;
2023/05/18 04:39:19;;;;;;;5;3.3;;;;;;;6.66;95.55762;940.8429;;;;
2023/05/18 04:41:49;;;;;;;3.1;2.8;;;;;;;6.65;96.52832;940.8797;;;;
2023/05/18 04:44:14;;;;;;;4.3;3.1;;;;;;;6.79;95.80078;940.8605;;;;
2023/05/18 04:46:41;;;;;;;3.6;3;;;;;;;6.81;95.09375;940.8339;;;;
2023/05/18 04:49:06;;;;;;;3.4;3;;;;;;;6.85;95.2041;940.7914;;;;
2023/05/18 04:51:33;;;;;;;4.6;4.1;;;;;;;6.81;95.10352;940.8817;;;;
2023/05/18 04:53:58;;;;;;;3.5;3.2;;;;;;;6.83;95.30176;940.8533;;;;
2023/05/18 04:56:25;;;;;;;2.7;2.5;;;;;;;6.83;93.66016;940.8271;;;;
2023/05/18 04:58:50;;;;;;;3.2;2.6;;;;;;;6.8;93.00684;940.7856;;;;
2023/05/18 05:01:20;;;;;;;3.1;2.5;;;;;;;6.9;93.37012;940.8055;;;;
2023/05/18 05:03:51;;;;;;;2.9;2.3;;;;;;;6.45;93.43066;940.8334;;;;
2023/05/18 05:06:17;;;;;;;2.9;2.4;;;;;;;6.46;93.97559;940.8667;;;;
2023/05/18 05:08:47;;;;;;;4.6;2.5;;;;;;;6.42;94.6123;940.7961;;;;
2023/05/18 05:11:12;;;;;;;3.5;2.6;;;;;;;6.38;95.59668;940.7883;;;;
2023/05/18 05:13:39;;;;;;;3.8;2.9;;;;;;;6.33;96.18457;940.7204;;;;
2023/05/18 05:16:05;;;;;;;3.4;2.6;;;;;;;6.34;95.74512;940.7903;;;;
2023/05/18 05:18:34;;;;;;;3.1;2.8;;;;;;;6.57;95.19824;940.7324;;;;
2023/05/18 05:20:59;;;;;;;4.4;3.1;;;;;;;6.7;94.52637;940.7427;;;;
2023/05/18 05:23:24;;;;;;;5.1;3.9;;;;;;;6.88;94.34961;940.7469;;;;
2023/05/18 05:25:50;;;;;;;10.9;7.3;;;;;;;7.69;92.98535;940.764;;;;
2023/05/18 05:28:15;;;;;;;11.7;8.3;;;;;;;9.32;87.61035;940.5944;;;;
2023/05/18 05:30:42;;;;;;;3.6;2.9;;;;;;;10.92;80.50879;940.6908;;;;
2023/05/18 05:33:07;;;;;;;2.9;2.4;;;;;;;12.24;73.16602;940.6407;;;;
2023/05/18 05:35:33;;;;;;;2.3;2.1;;;;;;;13.58;67.41211;940.6316;;;;
2023/05/18 05:37:58;;;;;;;2.6;1.8;;;;;;;14.29;63.13574;940.5745;;;;
2023/05/18 05:40:30;;;;;;;3.2;1.7;;;;;;;14.16;64.06055;940.5984;;;;
2023/05/18 05:42:55;;;;;;;2.1;1.7;;;;;;;13.37;67.11523;940.5893;;;;
2023/05/18 05:45:22;;;;;;;1.7;1.6;;;;;;;13.97;63.80273;940.5676;;;;
2023/05/18 05:47:48;;;;;;;2.8;1.8;;;;;;;13.95;64.15527;940.5549;;;;
2023/05/18 05:50:19;;;;;;;1.9;1.5;;;;;;;14.68;64.04492;940.4881;;;;
2023/05/18 05:52:44;;;;;;;3.8;1.9;;;;;;;16.01;59.29004;940.4766;;;;
2023/05/18 05:55:09;;;;;;;3.1;2;;;;;;;16.9;53.93066;940.5302;;;;
2023/05/18 05:57:41;;;;;;;3.5;2;;;;;;;16.7;52.94531;940.5264;;;;
2023/05/18 06:00:03;;;;;;;2.2;1.9;;;;;;;16.78;52.5498;940.507;;;;
2023/05/18 06:02:30;;;;;;;2.2;1.9;;;;;;;17.33;52.87109;940.5391;;;;
2023/05/18 06:05:20;;;;;;;2.8;1.9;;;;;;;18.5;51.65039;940.5381;;;;
2023/05/18 06:07:50;;;;;;;2.9;2.1;;;;;;;16.83;52.58984;940.5784;;;;
2023/05/18 06:13:46;;;;;;;2.2;1.8;;;;;;;19.36;50.28418;940.6086;;;;
2023/05/18 06:16:13;;;;;;;2.7;1.9;;;;;;;18.31;50.15234;940.5854;;;;
2023/05/18 06:18:38;;;;;;;3;1.7;;;;;;;19.38;51.46289;940.6431;;;;
2023/05/18 06:21:06;;;;;;;1.7;1.6;;;;;;;20.95;46.18555;940.6046;;;;
2023/05/18 06:23:31;;;;;;;2.7;1.5;;;;;;;21.61;43.93652;940.5897;;;;
2023/05/18 06:25:58;;;;;;;2.4;1.8;;;;;;;22.83;41.56738;940.6395;;;;
2023/05/18 06:28:23;;;;;;;2.2;1.5;;;;;;;21.55;43.85938;940.7074;;;;
2023/05/18 06:30:49;;;;;;;1.7;1.6;;;;;;;20.21;46.19043;940.6438;;;;
2023/05/18 06:33:14;;;;;;;1.5;1.3;;;;;;;20.75;44.01367;940.735;;;;
2023/05/18 06:35:41;;;;;;;2.5;1.4;;;;;;;20.26;45.96289;940.7051;;;;
2023/05/18 06:38:07;;;;;;;2.3;1.6;;;;;;;17.75;54.03516;940.6624;;;;
2023/05/18 06:40:36;;;;;;;2.1;1.3;;;;;;;18.97;48.29492;940.7305;;;;
2023/05/18 06:43:01;;;;;;;1.7;1.6;;;;;;;17.92;50.23633;940.6747;;;;
2023/05/18 06:45:30;;;;;;;2.1;1.6;;;;;;;17.61;53.05566;940.6911;;;;
2023/05/18 06:47:55;;;;;;;2.4;1.7;;;;;;;18.56;49.6582;940.6685;;;;
2023/05/18 06:50:23;;;;;;;2.3;1.6;;;;;;;18.54;49.7373;940.6099;;;;
2023/05/18 06:52:50;;;;;;;2.8;1.5;;;;;;;18.91;48.05566;940.6188;;;;
2023/05/18 06:55:18;;;;;;;2.7;1.5;;;;;;;19.84;47.41016;940.5932;;;;
2023/05/18 06:57:43;;;;;;;2.1;1.4;;;;;;;21.25;45.10547;940.5641;;;;
2023/05/18 07:00:13;;;;;;;1.6;1.3;;;;;;;23.02;39.75195;940.552;;;;
2023/05/18 07:02:37;;;;;;;1.9;1.4;;;;;;;21.34;43.10156;940.6425;;;;
2023/05/18 07:05:06;;;;;;;1.5;1.4;;;;;;;21.94;42.90234;940.6704;;;;
2023/05/18 07:07:30;;;;;;;2.3;1.4;;;;;;;23.13;39.39844;940.6506;;;;
2023/05/18 07:09:57;;;;;;;1.3;1.2;;;;;;;24.54;36.69336;940.6509;;;;
2023/05/18 07:12:24;;;;;;;1.5;1.1;;;;;;;23.13;38.97461;940.6533;;;;
2023/05/18 07:14:51;;;;;;;1.7;1.3;;;;;;;24.58;37.3457;940.7054;;;;
2023/05/18 07:17:16;;;;;;;2.5;1.4;;;;;;;25.26;35.05273;940.6716;;;;
2023/05/18 07:19:41;;;;;;;1.6;1.3;;;;;;;25.06;35.04883;940.7078;;;;
2023/05/18 07:22:07;;;;;;;1.7;1.5;;;;;;;22.94;37.39648;940.6449;;;;
2023/05/18 07:24:32;;;;;;;2;1.3;;;;;;;23.94;36.5625;940.6498;;;;
2023/05/18 07:26:58;;;;;;;2.5;1.7;;;;;;;22.98;39.19727;940.6498;;;;
2023/05/18 07:29:26;;;;;;;2.8;1.5;;;;;;;23.59;37.83789;940.653;;;;
2023/05/18 07:31:51;;;;;;;3.9;1.6;;;;;;;23.25;37.9043;940.5759;;;;
2023/05/18 07:34:16;;;;;;;1.4;1.2;;;;;;;20.65;43.20898;940.6456;;;;
2023/05/18 07:36:41;;;;;;;1.5;1.4;;;;;;;18.8;47.625;940.5938;;;;
2023/05/18 07:39:17;;;;;;;2.3;1.6;;;;;;;18.35;48.42578;940.6129;;;;
2023/05/18 07:41:35;;;;;;;2.8;1.8;;;;;;;17.7;50.7334;940.5528;;;;
2023/05/18 07:44:00;;;;;;;2;1.8;;;;;;;16.64;53.34277;940.5927;;;;
2023/05/18 07:46:28;;;;;;;2.6;1.8;;;;;;;15.01;59.38672;940.6453;;;;
2023/05/18 07:48:53;;;;;;;3.6;2;;;;;;;15.09;60.2627;940.6387;;;;
2023/05/18 07:51:21;;;;;;;2.4;1.8;;;;;;;15.03;63.0459;940.6286;;;;
2023/05/18 07:53:47;;;;;;;2.3;1.7;;;;;;;17.11;54.87207;940.5722;;;;
2023/05/18 07:56:13;;;;;;;2.5;1.8;;;;;;;17.44;53.02246;940.5527;;;;
2023/05/18 07:58:38;;;;;;;1.8;1.6;;;;;;;17.34;52.14063;940.6333;;;;
2023/05/18 08:01:05;;;;;;;2.4;1.8;;;;;;;16.62;53.44531;940.5374;;;;
2023/05/18 08:03:30;;;;;;;2.3;1.8;;;;;;;16.24;55.12207;940.6103;;;;
2023/05/18 08:05:59;;;;;;;2.7;1.8;;;;;;;15.54;59.42285;940.6532;;;;
2023/05/18 08:08:23;;;;;;;3.6;2.5;;;;;;;15.26;59.02832;940.6527;;;;
2023/05/18 08:10:49;;;;;;;4;2.5;;;;;;;14.17;64.94824;940.6641;;;;
2023/05/18 08:13:13;;;;;;;4.4;2.6;;;;;;;14.29;63.75781;940.5633;;;;
2023/05/18 08:15:44;;;;;;;3.7;2.2;;;;;;;14.3;64.26465;940.653;;;;
2023/05/18 08:18:09;;;;;;;4.4;2.7;;;;;;;14;64.89941;940.6189;;;;
2023/05/18 08:20:38;;;;;;;3.7;2.8;;;;;;;13.86;63.71582;940.6213;;;;
2023/05/18 08:23:06;;;;;;;4.6;2.8;;;;;;;13.95;64.11035;940.6094;;;;
2023/05/18 08:25:31;;;;;;;4.4;2.7;;;;;;;13.71;64.79883;940.6273;;;;
2023/05/18 08:27:58;;;;;;;4.7;2.6;;;;;;;13.78;65.5459;940.6049;;;;
2023/05/18 08:30:25;;;;;;;3.6;2.9;;;;;;;13.82;65.08008;940.6525;;;;
2023/05/18 08:32:52;;;;;;;4.1;2.7;;;;;;;13.86;65.28223;940.6558;;;;
2023/05/18 08:35:21;;;;;;;3.9;2.8;;;;;;;13.92;65.09473;940.6886;;;;
2023/05/18 08:37:49;;;;;;;3.5;2.5;;;;;;;13.89;65.37793;940.739;;;;
2023/05/18 08:40:13;;;;;;;4.9;2.9;;;;;;;13.77;66.0498;940.7026;;;;
2023/05/18 08:42:38;;;;;;;5;2.7;;;;;;;13.82;66.3916;940.6805;;;;
2023/05/18 08:45:04;;;;;;;3.9;2.6;;;;;;;13.95;65.375;940.7478;;;;
2023/05/18 08:47:31;;;;;;;3.5;2.7;;;;;;;13.99;65.24414;940.7029;;;;
2023/05/18 08:49:56;;;;;;;3.9;2.7;;;;;;;14.1;65.49023;940.733;;;;
2023/05/18 08:52:21;;;;;;;3;2.4;;;;;;;14.23;66.2002;940.7347;;;;
2023/05/18 08:54:47;;;;;;;3.1;2.7;;;;;;;14.24;66.53516;940.657;;;;
2023/05/18 08:57:12;;;;;;;4.2;2.9;;;;;;;14.29;65.06934;940.7107;;;;
2023/05/18 08:59:39;;;;;;;3;2.3;;;;;;;14.19;67.16211;940.6912;;;;
2023/05/18 09:02:04;;;;;;;4.8;2.8;;;;;;;14.29;65.57617;940.665;;;;
2023/05/18 09:04:33;;;;;;;4.3;2.9;;;;;;;14.14;65.8291;940.6448;;;;
2023/05/18 09:06:58;;;;;;;4.1;2.6;;;;;;;14.26;65.45703;940.6474;;;;
2023/05/18 09:09:26;;;;;;;4.7;2.9;;;;;;;14.31;66.61719;940.6354;;;;
2023/05/18 09:11:51;;;;;;;3.4;2.5;;;;;;;14.43;66.48535;940.5938;;;;
2023/05/18 09:14:24;;;;;;;2.9;2.5;;;;;;;14.4;66.50293;940.6264;;;;
2023/05/18 09:16:45;;;;;;;3.5;2.4;;;;;;;14.3;66.93652;940.6666;;;;
2023/05/18 09:19:13;;;;;;;3.3;2.5;;;;;;;14.36;65.67773;940.6553;;;;
2023/05/18 09:21:38;;;;;;;2.6;2.4;;;;;;;14.25;65.71875;940.6891;;;;
2023/05/18 09:24:04;;;;;;;2.9;2.2;;;;;;;14.14;65.32422;940.68;;;;
2023/05/18 09:26:29;;;;;;;4;2.3;;;;;;;13.98;66.32324;940.6437;;;;
2023/05/18 09:28:58;;;;;;;3.2;2.2;;;;;;;13.93;66.37305;940.6158;;;;
2023/05/18 09:31:23;;;;;;;2.5;2.2;;;;;;;14.1;66.79102;940.6841;;;;
2023/05/18 09:33:50;;;;;;;3.1;2;;;;;;;14.18;65.35156;940.7128;;;;
2023/05/18 09:36:15;;;;;;;3.8;2.3;;;;;;;14.11;65.80273;940.6633;;;;
2023/05/18 09:38:42;;;;;;;2.3;2.1;;;;;;;14.16;66.63965;940.7104;;;;
2023/05/18 09:41:08;;;;;;;3.5;2.2;;;;;;;14.29;67.26953;940.6122;;;;
2023/05/18 09:43:33;;;;;;;3;2.2;;;;;;;13.81;66.21875;940.6642;;;;
2023/05/18 09:45:58;;;;;;;2.9;2.4;;;;;;;13.32;69.87695;940.65;;;;
2023/05/18 09:48:23;;;;;;;2.7;2.4;;;;;;;13.3;71.13965;940.6691;;;;
2023/05/18 09:50:49;;;;;;;2.5;1.9;;;;;;;13.58;68.74707;940.6492;;;;
2023/05/18 09:53:14;;;;;;;2.3;2;;;;;;;13.72;67.28516;940.6689;;;;
2023/05/18 09:55:40;;;;;;;4;2.3;;;;;;;13.85;68.47852;940.6661;;;;
2023/05/18 09:58:07;;;;;;;3.7;2.1;;;;;;;13.86;69.71191;940.6605;;;;
2023/05/18 10:00:32;;;;;;;3.3;2.3;;;;;;;13.71;69.00879;940.5784;;;;
2023/05/18 10:03:03;;;;;;;3.8;2.3;;;;;;;13.81;68.2998;940.5649;;;;
2023/05/18 10:05:32;;;;;;;3.2;2;;;;;;;13.72;67.57227;940.5449;;;;
2023/05/18 10:07:57;;;;;;;2.9;1.9;;;;;;;13.64;69.16992;940.5511;;;;
2023/05/18 10:10:22;;;;;;;1.8;1.7;;;;;;;13.69;68.48828;940.5072;;;;
2023/05/18 10:12:50;;;;;;;3.9;2.4;;;;;;;13.66;67.11426;940.5928;;;;
2023/05/18 10:15:16;;;;;;;2.9;2.1;;;;;;;13.56;70.05371;940.5956;;;;
2023/05/18 10:17:43;;;;;;;2.6;2;;;;;;;13.53;68.88965;940.5611;;;;
2023/05/18 10:20:08;;;;;;;3.4;2.1;;;;;;;13.43;69.2959;940.6241;;;;
2023/05/18 10:22:36;;;;;;;3.2;2;;;;;;;13.5;67.42285;940.6747;;;;
2023/05/18 10:25:02;;;;;;;3;2.2;;;;;;;13.61;68.54492;940.5941;;;;
2023/05/18 10:27:29;;;;;;;2.3;2;;;;;;;13.28;66.65527;940.6755;;;;
2023/05/18 10:29:54;;;;;;;3.3;2.3;;;;;;;13.38;68.13965;940.6741;;;;
2023/05/18 10:32:24;;;;;;;2.5;1.9;;;;;;;13.43;67.64258;940.6058;;;;
2023/05/18 10:34:48;;;;;;;3.4;1.9;;;;;;;13.14;69.96387;940.6824;;;;
2023/05/18 10:37:16;;;;;;;2.7;1.9;;;;;;;13.14;69.3418;940.6904;;;;
2023/05/18 10:39:44;;;;;;;4.2;2.2;;;;;;;13.12;71.21191;940.6791;;;;
2023/05/18 10:42:07;;;;;;;3.3;2.2;;;;;;;12.94;70.06836;940.6542;;;;
2023/05/18 10:44:31;;;;;;;2.1;1.9;;;;;;;12.75;71.51855;940.6578;;;;
2023/05/18 10:46:59;;;;;;;2.1;1.7;;;;;;;12.57;72.69434;940.6566;;;;
2023/05/18 10:49:25;;;;;;;3.4;2.1;;;;;;;12.5;72.83105;940.6666;;;;
2023/05/18 10:51:53;;;;;;;2.4;1.8;;;;;;;12.56;70.08887;940.6678;;;;
2023/05/18 10:54:18;;;;;;;2.2;2;;;;;;;12.6;71.61914;940.6464;;;;
2023/05/18 10:56:43;;;;;;;2.5;2;;;;;;;12.6;71.26367;940.5281;;;;
2023/05/18 10:59:08;;;;;;;2.6;2;;;;;;;12.58;70.64063;940.5433;;;;
2023/05/18 11:01:40;;;;;;;4.1;2.2;;;;;;;12.4;72.82617;940.5978;;;;
2023/05/18 11:04:06;;;;;;;2.1;1.9;;;;;;;12.41;72.43652;940.5419;;;;
2023/05/18 11:06:33;;;;;;;2.7;2.2;;;;;;;12.33;72.55078;940.6652;;;;
2023/05/18 11:09:01;;;;;;;2.2;1.5;;;;;;;12.23;71.40918;940.663;;;;
2023/05/18 11:11:28;;;;;;;2.1;1.8;;;;;;;12.17;72.98145;940.6919;;;;
2023/05/18 11:13:51;;;;;;;2.7;2;;;;;;;12.43;73.53027;940.6806;;;;
2023/05/18 11:16:24;;;;;;;2.6;2;;;;;;;12.52;71.93945;940.725;;;;
2023/05/18 11:18:53;;;;;;;2.9;1.8;;;;;;;12.6;72.27441;940.6824;;;;
2023/05/18 11:21:17;;;;;;;1.9;1.7;;;;;;;12.7;71.43066;940.7495;;;;
2023/05/18 11:23:42;;;;;;;2.8;1.7;;;;;;;12.8;69.56445;940.7556;;;;
2023/05/18 11:26:09;;;;;;;1.9;1.7;;;;;;;12.84;68.83691;940.645;;;;
2023/05/18 11:28:32;;;;;;;3.2;1.7;;;;;;;12.88;70.64355;940.6116;;;;
2023/05/18 11:30:59;;;;;;;3;1.8;;;;;;;12.97;69.63672;940.6063;;;;
2023/05/18 11:33:24;;;;;;;2.5;1.9;;;;;;;12.97;68.8916;940.6263;;;;
2023/05/18 11:35:49;;;;;;;3;1.9;;;;;;;13.12;68.65137;940.6951;;;;
2023/05/18 11:38:15;;;;;;;2.2;1.8;;;;;;;13.21;67.50391;940.6934;;;;
2023/05/18 11:40:40;;;;;;;4;2.2;;;;;;;13.24;66.87793;940.6722;;;;
2023/05/18 11:43:05;;;;;;;2.2;1.9;;;;;;;13.1;67.23633;940.7631;;;;
2023/05/18 11:45:33;;;;;;;2.9;1.9;;;;;;;12.84;69.3291;940.7528;;;;
2023/05/18 11:48:02;;;;;;;2.4;1.8;;;;;;;12.74;70.24316;940.752;;;;
2023/05/18 11:50:31;;;;;;;4.6;2.2;;;;;;;12.77;71.06348;940.7882;;;;
2023/05/18 11:52:56;;;;;;;2.9;2.1;;;;;;;12.7;70.20215;940.7935;;;;
2023/05/18 11:55:26;;;;;;;2.7;2.3;;;;;;;12.44;71.76563;940.8077;;;;
2023/05/18 11:57:52;;;;;;;2.5;1.8;;;;;;;12.19;71.24316;940.7933;;;;
2023/05/18 12:00:24;;;;;;;2.9;2.1;;;;;;;12.08;72.35938;940.7511;;;;
2023/05/18 12:02:55;;;;;;;2.8;2.3;;;;;;;12.08;73.95215;940.8611;;;;
2023/05/18 12:05:23;;;;;;;3.1;2.2;;;;;;;11.93;71.00684;940.9028;;;;
2023/05/18 12:07:48;;;;;;;3.7;2.3;;;;;;;12.04;72.71973;940.8617;;;;
2023/05/18 12:10:18;;;;;;;3.3;2.3;;;;;;;12.46;71.41309;940.7942;;;;
2023/05/18 12:12:43;;;;;;;2.7;1.8;;;;;;;12.72;70.66602;940.6961;;;;
2023/05/18 12:15:15;;;;;;;4.6;2.3;;;;;;;12.56;72.09668;940.7405;;;;
2023/05/18 12:17:44;;;;;;;2.5;2;;;;;;;12.83;69.37402;940.7169;;;;
2023/05/18 12:20:10;;;;;;;2.6;2.3;;;;;;;12.79;69.62207;940.7292;;;;
2023/05/18 12:22:37;;;;;;;2.6;2.1;;;;;;;13.02;69.01367;940.674;;;;
2023/05/18 12:25:02;;;;;;;2;1.8;;;;;;;13.25;68.88965;940.6586;;;;
2023/05/18 12:27:29;;;;;;;2.4;1.8;;;;;;;13.59;68.51758;940.6756;;;;
2023/05/18 12:29:54;;;;;;;3.4;2.2;;;;;;;13.83;67.52051;940.6397;;;;
2023/05/18 12:32:22;;;;;;;2.1;1.8;;;;;;;13.96;65.07715;940.6517;;;;
2023/05/18 12:34:47;;;;;;;3.1;2.1;;;;;;;14.12;65.54004;940.6625;;;;
2023/05/18 12:37:12;;;;;;;3;2.3;;;;;;;13.73;67.1709;940.6369;;;;
2023/05/18 12:39:41;;;;;;;2.6;2;;;;;;;13.81;68.05664;940.6586;;;;
2023/05/18 12:42:08;;;;;;;2.1;1.9;;;;;;;13.9;68.05957;940.6494;;;;
2023/05/18 12:44:33;;;;;;;2.7;1.8;;;;;;;14.28;65.36719;940.5529;;;;
2023/05/18 12:47:00;;;;;;;2.8;2;;;;;;;13.92;67.60352;940.4933;;;;
2023/05/18 12:49:25;;;;;;;2.5;2;;;;;;;14.35;66.11523;940.6113;;;;
2023/05/18 12:51:51;;;;;;;3.4;1.8;;;;;;;14.06;66.4043;940.6216;;;;
2023/05/18 12:54:18;;;;;;;1.9;1.7;;;;;;;14.45;64.80566;940.6309;;;;
2023/05/18 12:56:44;;;;;;;3.3;1.5;;;;;;;14.76;61.06934;940.5912;;;;
2023/05/18 12:59:10;;;;;;;2.7;1.7;;;;;;;14.87;62.49316;940.5808;;;;
2023/05/18 13:01:36;;;;;;;1.7;1.6;;;;;;;14.97;61.36426;940.4899;;;;
2023/05/18 13:04:01;;;;;;;2.1;1.5;;;;;;;15.1;62.38574;940.5441;;;;
2023/05/18 13:06:29;;;;;;;1.7;1.4;;;;;;;15.08;61.50781;940.5338;;;;
2023/05/18 13:08:54;;;;;;;1.6;1.5;;;;;;;15.11;60.75977;940.5472;;;;
2023/05/18 13:11:21;;;;;;;2.9;1.8;;;;;;;15.23;60.29297;940.5406;;;;
2023/05/18 13:13:46;;;;;;;1.9;1.7;;;;;;;14.89;62.3457;940.4412;;;;
2023/05/18 13:16:15;;;;;;;2.1;1.7;;;;;;;14.56;62.16016;940.4889;;;;
2023/05/18 13:18:43;;;;;;;2.5;1.6;;;;;;;14.77;61.47461;940.4573;;;;
2023/05/18 13:21:08;;;;;;;2.8;1.9;;;;;;;14.43;63.10938;940.4874;;;;
2023/05/18 13:23:34;;;;;;;2.2;1.8;;;;;;;14.61;61.44043;940.4791;;;;
2023/05/18 13:25:59;;;;;;;2.2;1.6;;;;;;;14.51;61.72559;940.4882;;;;
2023/05/18 13:28:27;;;;;;;2.3;2;;;;;;;13.81;63.81348;940.384;;;;
2023/05/18 13:30:52;;;;;;;2.7;2;;;;;;;13.8;64.94922;940.4369;;;;
2023/05/18 13:33:20;;;;;;;1.9;1.7;;;;;;;14.05;63.6748;940.4919;;;;
2023/05/18 13:35:44;;;;;;;3;2;;;;;;;14.22;63.02051;940.4728;;;;
2023/05/18 13:38:13;;;;;;;2;1.7;;;;;;;14.27;62.35059;940.4977;;;;
2023/05/18 13:40:38;;;;;;;2.3;1.7;;;;;;;14.19;62.5791;940.4654;;;;
2023/05/18 13:43:07;;;;;;;2.7;1.7;;;;;;;14.14;63.26367;940.4342;;;;
2023/05/18 13:45:33;;;;;;;3.8;1.9;;;;;;;14.22;61.8584;940.3943;;;;
2023/05/18 13:48:05;;;;;;;3.3;2;;;;;;;14.11;61.78418;940.3806;;;;
2023/05/18 13:50:32;;;;;;;3;2.1;;;;;;;14.17;63.24414;940.3765;;;;
2023/05/18 13:52:57;;;;;;;2.3;1.8;;;;;;;14.23;64.47266;940.4232;;;;
2023/05/18 13:55:25;;;;;;;4.6;2.1;;;;;;;14.21;63.9502;940.3717;;;;
2023/05/18 13:57:50;;;;;;;2;1.8;;;;;;;14.09;63.50781;940.3726;;;;
2023/05/18 14:00:19;;;;;;;2;1.8;;;;;;;13.92;63.97852;940.3171;;;;
2023/05/18 14:02:43;;;;;;;4.5;1.9;;;;;;;13.76;63.08203;940.2952;;;;
2023/05/18 14:05:15;;;;;;;2.5;1.9;;;;;;;13.9;62.88281;940.3091;;;;
2023/05/18 14:07:43;;;;;;;3.4;1.8;;;;;;;13.93;61.95605;940.3195;;;;
2023/05/18 14:10:14;;;;;;;3.9;1.6;;;;;;;13.88;64.36426;940.2715;;;;
2023/05/18 14:12:41;;;;;;;3.8;2.2;;;;;;;13.79;65.53516;940.2584;;;;
2023/05/18 14:15:04;;;;;;;3.7;1.9;;;;;;;13.85;65.10742;940.2843;;;;
2023/05/18 14:17:33;;;;;;;6.1;2;;;;;;;13.95;65.07617;940.3043;;;;
2023/05/18 14:20:03;;;;;;;2.8;2.1;;;;;;;14.12;63.55859;940.3125;;;;
2023/05/18 14:22:29;;;;;;;3;2;;;;;;;14.22;63.07813;940.3399;;;;
2023/05/18 14:24:56;;;;;;;3;2;;;;;;;14.35;63.33984;940.3589;;;;
2023/05/18 14:27:21;;;;;;;2.6;1.9;;;;;;;14.2;64.14648;940.3876;;;;
2023/05/18 14:29:48;;;;;;;3.1;2.1;;;;;;;14.42;62.23145;940.327;;;;
2023/05/18 14:32:14;;;;;;;3;2.2;;;;;;;14.47;61.37402;940.3273;;;;
2023/05/18 14:34:42;;;;;;;3.3;1.8;;;;;;;14.44;61.3125;940.3049;;;;
2023/05/18 14:37:07;;;;;;;2.3;1.7;;;;;;;14.56;61.99805;940.2869;;;;
2023/05/18 14:39:34;;;;;;;3.5;2.1;;;;;;;14.65;61.34277;940.3014;;;;
2023/05/18 14:41:59;;;;;;;2.3;1.7;;;;;;;14.43;63.28223;940.2608;;;;
2023/05/18 14:44:25;;;;;;;3.1;1.9;;;;;;;14.49;62.08008;940.2703;;;;
2023/05/18 14:46:50;;;;;;;3.4;2.2;;;;;;;14.35;63.61523;940.2589;;;;
2023/05/18 14:49:18;;;;;;;3.2;1.9;;;;;;;14.22;63.8623;940.1789;;;;
2023/05/18 14:51:44;;;;;;;3.3;1.8;;;;;;;14.29;64.75977;940.2108;;;;
2023/05/18 14:54:10;;;;;;;2.8;1.9;;;;;;;14.37;63.82617;940.2219;;;;
2023/05/18 14:56:35;;;;;;;3.1;2;;;;;;;14.31;63.64355;940.2645;;;;
2023/05/18 14:59:02;;;;;;;3.2;2.1;;;;;;;14.38;63.52832;940.2531;;;;
2023/05/18 15:01:27;;;;;;;1.9;1.7;;;;;;;14.29;62.97363;940.2509;;;;
2023/05/18 15:03:53;;;;;;;3.7;1.8;;;;;;;14.33;63.45117;940.2605;;;;
2023/05/18 15:06:18;;;;;;;3.8;2;;;;;;;14.39;63.03418;940.2771;;;;
2023/05/18 15:08:46;;;;;;;2.7;2;;;;;;;14.24;62.67773;940.3047;;;;
2023/05/18 15:11:11;;;;;;;4.2;2.1;;;;;;;13.94;63.56738;940.2811;;;;
2023/05/18 15:13:37;;;;;;;3.1;2.2;;;;;;;13.91;64.18457;940.2859;;;;
2023/05/18 15:16:02;;;;;;;3.8;2.3;;;;;;;13.88;65.22754;940.3259;;;;
2023/05/18 15:18:27;;;;;;;3.7;2.2;;;;;;;13.96;64.00684;940.3116;;;;
2023/05/18 15:20:53;;;;;;;2.3;1.9;;;;;;;14;65.61328;940.3699;;;;
2023/05/18 15:23:20;;;;;;;3.4;2.2;;;;;;;14.03;64.45508;940.2853;;;;
2023/05/18 15:25:46;;;;;;;2.4;1.9;;;;;;;13.74;65.48145;940.2831;;;;
2023/05/18 15:28:13;;;;;;;3.2;2.1;;;;;;;13.65;67.18359;940.3719;;;;
2023/05/18 15:30:38;;;;;;;3.6;2.6;;;;;;;13.53;67.06055;940.3875;;;;
2023/05/18 15:33:04;;;;;;;3.9;2.2;;;;;;;13.63;66.28223;940.2816;;;;
2023/05/18 15:35:29;;;;;;;3.5;2;;;;;;;13.68;66.39258;940.3976;;;;
2023/05/18 15:37:57;;;;;;;2.4;2.1;;;;;;;13.73;66.2959;940.3672;;;;
2023/05/18 15:40:22;;;;;;;3.7;2.1;;;;;;;13.76;65.69141;940.3464;;;;